sensor_id;sensor_type;location;lat;lon;timestamp;P1;durP1;ratioP1;P2;durP2;ratioP2
13222;SDS011;6676;45.192;5.722;2022-08-03T00:00:07;1.30;;;0.70;;
13222;SDS011;6676;45.192;5.722;2022-08-03T00:03:02;2.00;;;1.17;;
13222;SDS011;6676;45.192;5.722;2022-08-03T00:08:40;1.85;;;0.90;;
13222;SDS011;6676;45.192;5.722;2022-08-03T00:14:10;1.65;;;0.80;;
13222;SDS011;6676;45.192;5.722;2022-08-03T00:17:02;1.57;;;0.90;;
13222;SDS011;6676;45.192;5.722;2022-08-03T00:19:53;1.30;;;0.82;;
13222;SDS011;6676;45.192;5.722;2022-08-03T00:22:45;2.37;;;0.80;;
13222;SDS011;6676;45.192;5.722;2022-08-03T00:28:15;1.15;;;1.00;;
13222;SDS011;6676;45.192;5.722;2022-08-03T00:31:06;1.07;;;0.90;;
13222;SDS011;6676;45.192;5.722;2022-08-03T00:33:59;1.35;;;0.90;;
13222;SDS011;6676;45.192;5.722;2022-08-03T00:36:51;2.02;;;0.93;;
13222;SDS011;6676;45.192;5.722;2022-08-03T00:39:42;1.00;;;0.85;;
13222;SDS011;6676;45.192;5.722;2022-08-03T00:42:35;2.02;;;0.90;;
13222;SDS011;6676;45.192;5.722;2022-08-03T00:45:37;1.75;;;1.10;;
13222;SDS011;6676;45.192;5.722;2022-08-03T00:48:29;1.42;;;1.05;;
13222;SDS011;6676;45.192;5.722;2022-08-03T00:51:21;1.70;;;0.95;;
13222;SDS011;6676;45.192;5.722;2022-08-03T00:54:12;1.50;;;0.70;;
13222;SDS011;6676;45.192;5.722;2022-08-03T00:57:04;1.45;;;0.80;;
13222;SDS011;6676;45.192;5.722;2022-08-03T00:59:56;1.45;;;0.90;;
13222;SDS011;6676;45.192;5.722;2022-08-03T01:02:48;2.05;;;0.90;;
13222;SDS011;6676;45.192;5.722;2022-08-03T01:05:43;1.92;;;0.90;;
13222;SDS011;6676;45.192;5.722;2022-08-03T01:08:38;1.00;;;0.90;;
13222;SDS011;6676;45.192;5.722;2022-08-03T01:11:31;2.08;;;0.90;;
13222;SDS011;6676;45.192;5.722;2022-08-03T01:14:28;1.20;;;0.88;;
13222;SDS011;6676;45.192;5.722;2022-08-03T01:17:24;2.75;;;0.90;;
13222;SDS011;6676;45.192;5.722;2022-08-03T01:23:02;3.02;;;0.80;;
13222;SDS011;6676;45.192;5.722;2022-08-03T01:26:11;2.35;;;1.00;;
13222;SDS011;6676;45.192;5.722;2022-08-03T01:29:11;1.82;;;0.70;;
13222;SDS011;6676;45.192;5.722;2022-08-03T01:32:08;2.42;;;0.78;;
13222;SDS011;6676;45.192;5.722;2022-08-03T01:35:03;1.02;;;0.70;;
13222;SDS011;6676;45.192;5.722;2022-08-03T01:37:57;1.77;;;0.75;;
13222;SDS011;6676;45.192;5.722;2022-08-03T01:40:51;1.30;;;0.70;;
13222;SDS011;6676;45.192;5.722;2022-08-03T01:43:45;1.57;;;0.78;;
13222;SDS011;6676;45.192;5.722;2022-08-03T01:46:40;1.92;;;0.90;;
13222;SDS011;6676;45.192;5.722;2022-08-03T01:49:37;1.65;;;1.00;;
13222;SDS011;6676;45.192;5.722;2022-08-03T01:52:31;4.10;;;1.00;;
13222;SDS011;6676;45.192;5.722;2022-08-03T01:55:24;2.30;;;1.02;;
13222;SDS011;6676;45.192;5.722;2022-08-03T01:58:16;3.02;;;1.05;;
13222;SDS011;6676;45.192;5.722;2022-08-03T02:03:49;1.67;;;1.20;;
13222;SDS011;6676;45.192;5.722;2022-08-03T02:06:44;1.40;;;0.85;;
13222;SDS011;6676;45.192;5.722;2022-08-03T02:09:39;3.50;;;1.02;;
13222;SDS011;6676;45.192;5.722;2022-08-03T02:12:32;1.72;;;0.90;;
13222;SDS011;6676;45.192;5.722;2022-08-03T02:15:26;1.60;;;0.80;;
13222;SDS011;6676;45.192;5.722;2022-08-03T02:18:19;2.25;;;0.90;;
13222;SDS011;6676;45.192;5.722;2022-08-03T02:21:11;3.70;;;0.90;;
13222;SDS011;6676;45.192;5.722;2022-08-03T02:24:05;2.02;;;1.10;;
13222;SDS011;6676;45.192;5.722;2022-08-03T02:26:57;1.50;;;0.90;;
13222;SDS011;6676;45.192;5.722;2022-08-03T02:29:52;2.02;;;1.20;;
13222;SDS011;6676;45.192;5.722;2022-08-03T02:32:46;2.20;;;1.07;;
13222;SDS011;6676;45.192;5.722;2022-08-03T02:38:22;4.62;;;1.20;;
13222;SDS011;6676;45.192;5.722;2022-08-03T02:41:15;2.20;;;0.90;;
13222;SDS011;6676;45.192;5.722;2022-08-03T02:44:09;1.82;;;1.30;;
13222;SDS011;6676;45.192;5.722;2022-08-03T02:47:02;1.37;;;1.00;;
13222;SDS011;6676;45.192;5.722;2022-08-03T02:49:56;1.37;;;1.00;;
13222;SDS011;6676;45.192;5.722;2022-08-03T02:52:48;2.02;;;1.07;;
13222;SDS011;6676;45.192;5.722;2022-08-03T02:55:41;1.35;;;1.00;;
13222;SDS011;6676;45.192;5.722;2022-08-03T02:58:33;1.32;;;0.95;;
13222;SDS011;6676;45.192;5.722;2022-08-03T03:01:26;3.52;;;0.90;;
13222;SDS011;6676;45.192;5.722;2022-08-03T03:04:19;1.65;;;0.90;;
13222;SDS011;6676;45.192;5.722;2022-08-03T03:07:12;3.62;;;1.00;;
13222;SDS011;6676;45.192;5.722;2022-08-03T03:10:06;2.00;;;1.12;;
13222;SDS011;6676;45.192;5.722;2022-08-03T03:12:58;3.50;;;1.20;;
13222;SDS011;6676;45.192;5.722;2022-08-03T03:18:32;2.05;;;0.80;;
13222;SDS011;6676;45.192;5.722;2022-08-03T03:21:25;1.62;;;0.93;;
13222;SDS011;6676;45.192;5.722;2022-08-03T03:24:19;1.05;;;0.80;;
13222;SDS011;6676;45.192;5.722;2022-08-03T03:27:10;2.00;;;0.90;;
13222;SDS011;6676;45.192;5.722;2022-08-03T03:30:05;2.10;;;1.17;;
13222;SDS011;6676;45.192;5.722;2022-08-03T03:32:57;3.22;;;1.25;;
13222;SDS011;6676;45.192;5.722;2022-08-03T03:35:50;2.77;;;1.00;;
13222;SDS011;6676;45.192;5.722;2022-08-03T03:38:31;1.00;;;0.78;;
13222;SDS011;6676;45.192;5.722;2022-08-03T03:41:23;1.20;;;1.10;;
13222;SDS011;6676;45.192;5.722;2022-08-03T03:44:16;14.75;;;1.40;;
13222;SDS011;6676;45.192;5.722;2022-08-03T03:47:08;2.83;;;0.93;;
13222;SDS011;6676;45.192;5.722;2022-08-03T03:50:00;2.95;;;1.10;;
13222;SDS011;6676;45.192;5.722;2022-08-03T03:52:52;2.70;;;1.30;;
13222;SDS011;6676;45.192;5.722;2022-08-03T03:58:22;3.33;;;1.10;;
13222;SDS011;6676;45.192;5.722;2022-08-03T04:03:51;1.65;;;0.95;;
13222;SDS011;6676;45.192;5.722;2022-08-03T04:06:43;2.80;;;1.20;;
13222;SDS011;6676;45.192;5.722;2022-08-03T04:09:52;1.27;;;1.15;;
13222;SDS011;6676;45.192;5.722;2022-08-03T04:13:02;1.90;;;0.90;;
13222;SDS011;6676;45.192;5.722;2022-08-03T04:18:36;1.70;;;1.20;;
13222;SDS011;6676;45.192;5.722;2022-08-03T04:21:30;1.75;;;1.15;;
13222;SDS011;6676;45.192;5.722;2022-08-03T04:24:24;2.37;;;1.20;;
13222;SDS011;6676;45.192;5.722;2022-08-03T04:27:20;2.72;;;1.20;;
13222;SDS011;6676;45.192;5.722;2022-08-03T04:32:51;3.25;;;1.30;;
13222;SDS011;6676;45.192;5.722;2022-08-03T04:35:43;1.47;;;0.95;;
13222;SDS011;6676;45.192;5.722;2022-08-03T04:38:43;4.95;;;1.20;;
13222;SDS011;6676;45.192;5.722;2022-08-03T04:41:35;3.20;;;1.20;;
13222;SDS011;6676;45.192;5.722;2022-08-03T04:44:30;3.08;;;1.42;;
13222;SDS011;6676;45.192;5.722;2022-08-03T04:47:24;3.80;;;1.50;;
13222;SDS011;6676;45.192;5.722;2022-08-03T04:50:16;2.85;;;1.32;;
13222;SDS011;6676;45.192;5.722;2022-08-03T04:53:10;1.95;;;1.22;;
13222;SDS011;6676;45.192;5.722;2022-08-03T04:56:06;3.15;;;1.57;;
13222;SDS011;6676;45.192;5.722;2022-08-03T04:58:58;3.83;;;1.50;;
13222;SDS011;6676;45.192;5.722;2022-08-03T05:01:38;1.67;;;1.40;;
13222;SDS011;6676;45.192;5.722;2022-08-03T05:04:30;2.50;;;1.40;;
13222;SDS011;6676;45.192;5.722;2022-08-03T05:07:21;2.62;;;1.47;;
13222;SDS011;6676;45.192;5.722;2022-08-03T05:10:12;2.70;;;1.45;;
13222;SDS011;6676;45.192;5.722;2022-08-03T05:13:04;5.78;;;1.50;;
13222;SDS011;6676;45.192;5.722;2022-08-03T05:15:57;4.05;;;1.50;;
13222;SDS011;6676;45.192;5.722;2022-08-03T05:18:49;3.70;;;1.60;;
13222;SDS011;6676;45.192;5.722;2022-08-03T05:21:40;7.47;;;1.60;;
13222;SDS011;6676;45.192;5.722;2022-08-03T05:24:33;7.40;;;1.35;;
13222;SDS011;6676;45.192;5.722;2022-08-03T05:27:24;4.80;;;1.60;;
13222;SDS011;6676;45.192;5.722;2022-08-03T05:30:16;1.60;;;1.10;;
13222;SDS011;6676;45.192;5.722;2022-08-03T05:33:09;4.20;;;1.67;;
13222;SDS011;6676;45.192;5.722;2022-08-03T05:38:39;2.80;;;1.40;;
13222;SDS011;6676;45.192;5.722;2022-08-03T05:41:31;4.30;;;1.30;;
13222;SDS011;6676;45.192;5.722;2022-08-03T05:44:23;3.10;;;1.40;;
13222;SDS011;6676;45.192;5.722;2022-08-03T05:47:14;7.25;;;1.65;;
13222;SDS011;6676;45.192;5.722;2022-08-03T05:50:07;2.22;;;1.40;;
13222;SDS011;6676;45.192;5.722;2022-08-03T05:52:59;2.60;;;1.60;;
13222;SDS011;6676;45.192;5.722;2022-08-03T05:55:50;4.60;;;1.77;;
13222;SDS011;6676;45.192;5.722;2022-08-03T05:58:44;3.33;;;1.60;;
13222;SDS011;6676;45.192;5.722;2022-08-03T06:01:36;2.08;;;1.60;;
13222;SDS011;6676;45.192;5.722;2022-08-03T06:04:28;5.70;;;1.77;;
13222;SDS011;6676;45.192;5.722;2022-08-03T06:07:19;4.08;;;1.52;;
13222;SDS011;6676;45.192;5.722;2022-08-03T06:10:10;8.30;;;1.70;;
13222;SDS011;6676;45.192;5.722;2022-08-03T06:13:03;3.65;;;1.35;;
13222;SDS011;6676;45.192;5.722;2022-08-03T06:15:54;3.10;;;1.37;;
13222;SDS011;6676;45.192;5.722;2022-08-03T06:18:46;4.90;;;1.80;;
13222;SDS011;6676;45.192;5.722;2022-08-03T06:24:17;4.60;;;1.80;;
13222;SDS011;6676;45.192;5.722;2022-08-03T06:27:10;2.75;;;1.72;;
13222;SDS011;6676;45.192;5.722;2022-08-03T06:30:01;3.27;;;1.77;;
13222;SDS011;6676;45.192;5.722;2022-08-03T06:32:53;6.35;;;2.22;;
13222;SDS011;6676;45.192;5.722;2022-08-03T06:35:44;1.90;;;1.40;;
13222;SDS011;6676;45.192;5.722;2022-08-03T06:38:35;3.65;;;1.57;;
13222;SDS011;6676;45.192;5.722;2022-08-03T06:41:27;5.33;;;1.87;;
13222;SDS011;6676;45.192;5.722;2022-08-03T06:44:19;3.55;;;1.60;;
13222;SDS011;6676;45.192;5.722;2022-08-03T06:47:11;4.70;;;2.02;;
13222;SDS011;6676;45.192;5.722;2022-08-03T06:50:03;3.72;;;1.80;;
13222;SDS011;6676;45.192;5.722;2022-08-03T06:52:57;7.33;;;1.87;;
13222;SDS011;6676;45.192;5.722;2022-08-03T06:55:49;4.80;;;1.77;;
13222;SDS011;6676;45.192;5.722;2022-08-03T06:58:42;3.67;;;1.90;;
13222;SDS011;6676;45.192;5.722;2022-08-03T07:01:34;2.80;;;1.60;;
13222;SDS011;6676;45.192;5.722;2022-08-03T07:04:26;2.67;;;1.90;;
13222;SDS011;6676;45.192;5.722;2022-08-03T07:07:19;3.52;;;1.65;;
13222;SDS011;6676;45.192;5.722;2022-08-03T07:10:10;4.83;;;1.60;;
13222;SDS011;6676;45.192;5.722;2022-08-03T07:13:01;8.83;;;1.70;;
13222;SDS011;6676;45.192;5.722;2022-08-03T07:15:52;4.80;;;1.85;;
13222;SDS011;6676;45.192;5.722;2022-08-03T07:18:44;3.90;;;1.82;;
13222;SDS011;6676;45.192;5.722;2022-08-03T07:21:35;4.75;;;1.92;;
13222;SDS011;6676;45.192;5.722;2022-08-03T07:24:27;5.80;;;2.00;;
13222;SDS011;6676;45.192;5.722;2022-08-03T07:27:18;2.50;;;1.60;;
13222;SDS011;6676;45.192;5.722;2022-08-03T07:30:10;4.55;;;1.77;;
13222;SDS011;6676;45.192;5.722;2022-08-03T07:33:03;2.75;;;2.05;;
13222;SDS011;6676;45.192;5.722;2022-08-03T07:38:57;4.37;;;1.57;;
13222;SDS011;6676;45.192;5.722;2022-08-03T07:41:49;6.53;;;1.65;;
13222;SDS011;6676;45.192;5.722;2022-08-03T07:44:41;9.70;;;1.90;;
13222;SDS011;6676;45.192;5.722;2022-08-03T07:47:33;3.40;;;1.50;;
13222;SDS011;6676;45.192;5.722;2022-08-03T07:50:24;4.55;;;1.92;;
13222;SDS011;6676;45.192;5.722;2022-08-03T07:53:15;5.62;;;1.75;;
13222;SDS011;6676;45.192;5.722;2022-08-03T07:56:07;2.30;;;1.35;;
13222;SDS011;6676;45.192;5.722;2022-08-03T07:58:59;3.58;;;1.70;;
13222;SDS011;6676;45.192;5.722;2022-08-03T08:01:50;4.47;;;1.62;;
13222;SDS011;6676;45.192;5.722;2022-08-03T08:04:41;5.42;;;1.60;;
13222;SDS011;6676;45.192;5.722;2022-08-03T08:07:32;2.45;;;1.45;;
13222;SDS011;6676;45.192;5.722;2022-08-03T08:10:24;2.60;;;1.40;;
13222;SDS011;6676;45.192;5.722;2022-08-03T08:13:15;3.58;;;1.50;;
13222;SDS011;6676;45.192;5.722;2022-08-03T08:16:05;4.35;;;1.57;;
13222;SDS011;6676;45.192;5.722;2022-08-03T08:18:57;2.95;;;1.65;;
13222;SDS011;6676;45.192;5.722;2022-08-03T08:21:49;3.05;;;1.32;;
13222;SDS011;6676;45.192;5.722;2022-08-03T08:24:41;2.08;;;1.17;;
13222;SDS011;6676;45.192;5.722;2022-08-03T08:27:40;6.45;;;1.60;;
13222;SDS011;6676;45.192;5.722;2022-08-03T08:30:34;5.22;;;2.15;;
13222;SDS011;6676;45.192;5.722;2022-08-03T08:33:28;3.30;;;1.42;;
13222;SDS011;6676;45.192;5.722;2022-08-03T08:36:22;2.92;;;1.60;;
13222;SDS011;6676;45.192;5.722;2022-08-03T08:39:14;4.25;;;1.62;;
13222;SDS011;6676;45.192;5.722;2022-08-03T08:42:06;3.27;;;1.35;;
13222;SDS011;6676;45.192;5.722;2022-08-03T08:44:59;3.50;;;1.50;;
13222;SDS011;6676;45.192;5.722;2022-08-03T08:47:54;4.37;;;1.70;;
13222;SDS011;6676;45.192;5.722;2022-08-03T08:50:47;2.45;;;1.82;;
13222;SDS011;6676;45.192;5.722;2022-08-03T08:53:44;2.12;;;1.72;;
13222;SDS011;6676;45.192;5.722;2022-08-03T08:56:38;4.03;;;1.50;;
13222;SDS011;6676;45.192;5.722;2022-08-03T08:59:40;5.40;;;1.52;;
13222;SDS011;6676;45.192;5.722;2022-08-03T09:02:41;2.10;;;1.52;;
13222;SDS011;6676;45.192;5.722;2022-08-03T09:05:33;2.75;;;1.47;;
13222;SDS011;6676;45.192;5.722;2022-08-03T09:08:28;3.77;;;1.60;;
13222;SDS011;6676;45.192;5.722;2022-08-03T09:11:21;3.02;;;1.77;;
13222;SDS011;6676;45.192;5.722;2022-08-03T09:14:16;1.70;;;1.30;;
13222;SDS011;6676;45.192;5.722;2022-08-03T09:17:10;2.83;;;1.60;;
13222;SDS011;6676;45.192;5.722;2022-08-03T09:20:05;3.45;;;1.92;;
13222;SDS011;6676;45.192;5.722;2022-08-03T09:22:58;6.40;;;1.80;;
13222;SDS011;6676;45.192;5.722;2022-08-03T09:25:57;6.92;;;1.72;;
13222;SDS011;6676;45.192;5.722;2022-08-03T09:28:55;3.12;;;1.70;;
13222;SDS011;6676;45.192;5.722;2022-08-03T09:31:58;1.22;;;1.12;;
13222;SDS011;6676;45.192;5.722;2022-08-03T09:34:37;5.80;;;1.50;;
13222;SDS011;6676;45.192;5.722;2022-08-03T09:37:29;3.42;;;1.60;;
13222;SDS011;6676;45.192;5.722;2022-08-03T09:40:33;5.00;;;1.90;;
13222;SDS011;6676;45.192;5.722;2022-08-03T09:43:45;3.40;;;1.72;;
13222;SDS011;6676;45.192;5.722;2022-08-03T09:46:48;3.52;;;1.50;;
13222;SDS011;6676;45.192;5.722;2022-08-03T09:49:59;2.83;;;1.60;;
13222;SDS011;6676;45.192;5.722;2022-08-03T09:52:48;2.02;;;1.45;;
13222;SDS011;6676;45.192;5.722;2022-08-03T09:55:49;3.10;;;1.80;;
13222;SDS011;6676;45.192;5.722;2022-08-03T09:58:45;5.33;;;1.70;;
13222;SDS011;6676;45.192;5.722;2022-08-03T10:01:38;5.25;;;2.30;;
13222;SDS011;6676;45.192;5.722;2022-08-03T10:04:31;5.50;;;2.37;;
13222;SDS011;6676;45.192;5.722;2022-08-03T10:07:23;6.35;;;2.45;;
13222;SDS011;6676;45.192;5.722;2022-08-03T10:10:15;4.55;;;2.20;;
13222;SDS011;6676;45.192;5.722;2022-08-03T10:13:13;6.45;;;2.05;;
13222;SDS011;6676;45.192;5.722;2022-08-03T10:16:05;4.03;;;1.87;;
13222;SDS011;6676;45.192;5.722;2022-08-03T10:18:58;4.33;;;1.77;;
13222;SDS011;6676;45.192;5.722;2022-08-03T10:21:52;2.33;;;1.70;;
13222;SDS011;6676;45.192;5.722;2022-08-03T10:24:51;2.22;;;1.50;;
13222;SDS011;6676;45.192;5.722;2022-08-03T10:27:45;4.95;;;1.90;;
13222;SDS011;6676;45.192;5.722;2022-08-03T10:30:38;4.85;;;1.90;;
13222;SDS011;6676;45.192;5.722;2022-08-03T10:33:36;3.47;;;1.37;;
13222;SDS011;6676;45.192;5.722;2022-08-03T10:36:30;5.22;;;1.55;;
13222;SDS011;6676;45.192;5.722;2022-08-03T10:42:30;2.75;;;1.27;;
13222;SDS011;6676;45.192;5.722;2022-08-03T10:45:24;1.40;;;1.30;;
13222;SDS011;6676;45.192;5.722;2022-08-03T10:48:16;1.40;;;1.30;;
13222;SDS011;6676;45.192;5.722;2022-08-03T10:51:09;2.30;;;1.37;;
13222;SDS011;6676;45.192;5.722;2022-08-03T10:54:02;3.72;;;1.30;;
13222;SDS011;6676;45.192;5.722;2022-08-03T10:56:56;2.90;;;1.20;;
13222;SDS011;6676;45.192;5.722;2022-08-03T11:00:10;3.08;;;1.32;;
13222;SDS011;6676;45.192;5.722;2022-08-03T11:03:06;1.30;;;1.17;;
13222;SDS011;6676;45.192;5.722;2022-08-03T11:09:13;1.42;;;1.15;;
13222;SDS011;6676;45.192;5.722;2022-08-03T11:12:20;3.95;;;1.30;;
13222;SDS011;6676;45.192;5.722;2022-08-03T11:15:14;2.58;;;1.30;;
13222;SDS011;6676;45.192;5.722;2022-08-03T11:18:08;3.17;;;1.17;;
13222;SDS011;6676;45.192;5.722;2022-08-03T11:21:05;1.35;;;1.20;;
13222;SDS011;6676;45.192;5.722;2022-08-03T11:23:59;1.60;;;1.00;;
13222;SDS011;6676;45.192;5.722;2022-08-03T11:27:00;2.08;;;1.07;;
13222;SDS011;6676;45.192;5.722;2022-08-03T11:30:06;2.15;;;1.20;;
13222;SDS011;6676;45.192;5.722;2022-08-03T11:33:01;1.45;;;0.95;;
13222;SDS011;6676;45.192;5.722;2022-08-03T11:36:00;3.20;;;1.07;;
13222;SDS011;6676;45.192;5.722;2022-08-03T11:39:11;1.70;;;1.12;;
13222;SDS011;6676;45.192;5.722;2022-08-03T11:45:55;2.12;;;1.00;;
13222;SDS011;6676;45.192;5.722;2022-08-03T11:48:54;3.42;;;1.60;;
13222;SDS011;6676;45.192;5.722;2022-08-03T11:51:54;2.30;;;1.15;;
13222;SDS011;6676;45.192;5.722;2022-08-03T11:54:46;1.10;;;1.00;;
13222;SDS011;6676;45.192;5.722;2022-08-03T11:57:44;1.67;;;1.00;;
13222;SDS011;6676;45.192;5.722;2022-08-03T12:00:37;2.35;;;1.30;;
13222;SDS011;6676;45.192;5.722;2022-08-03T12:03:30;5.03;;;1.50;;
13222;SDS011;6676;45.192;5.722;2022-08-03T12:06:22;3.35;;;1.22;;
13222;SDS011;6676;45.192;5.722;2022-08-03T12:09:17;6.30;;;1.50;;
13222;SDS011;6676;45.192;5.722;2022-08-03T12:12:10;2.45;;;1.40;;
13222;SDS011;6676;45.192;5.722;2022-08-03T12:15:06;4.20;;;1.40;;
13222;SDS011;6676;45.192;5.722;2022-08-03T12:18:12;6.30;;;1.10;;
13222;SDS011;6676;45.192;5.722;2022-08-03T12:21:08;2.83;;;1.37;;
13222;SDS011;6676;45.192;5.722;2022-08-03T12:24:03;2.15;;;1.30;;
13222;SDS011;6676;45.192;5.722;2022-08-03T12:26:58;6.30;;;1.30;;
13222;SDS011;6676;45.192;5.722;2022-08-03T12:29:52;2.10;;;1.02;;
13222;SDS011;6676;45.192;5.722;2022-08-03T12:32:48;3.47;;;1.10;;
13222;SDS011;6676;45.192;5.722;2022-08-03T12:35:39;2.67;;;1.12;;
13222;SDS011;6676;45.192;5.722;2022-08-03T12:38:33;3.95;;;1.40;;
13222;SDS011;6676;45.192;5.722;2022-08-03T12:41:34;5.58;;;1.27;;
13222;SDS011;6676;45.192;5.722;2022-08-03T12:44:34;3.58;;;1.30;;
13222;SDS011;6676;45.192;5.722;2022-08-03T12:47:25;2.25;;;1.00;;
13222;SDS011;6676;45.192;5.722;2022-08-03T12:50:22;0.95;;;0.80;;
13222;SDS011;6676;45.192;5.722;2022-08-03T12:53:27;2.65;;;1.10;;
13222;SDS011;6676;45.192;5.722;2022-08-03T12:56:19;3.87;;;1.00;;
13222;SDS011;6676;45.192;5.722;2022-08-03T12:59:23;3.15;;;1.10;;
13222;SDS011;6676;45.192;5.722;2022-08-03T13:02:18;2.77;;;1.00;;
13222;SDS011;6676;45.192;5.722;2022-08-03T13:05:12;2.65;;;1.02;;
13222;SDS011;6676;45.192;5.722;2022-08-03T13:08:04;1.55;;;1.00;;
13222;SDS011;6676;45.192;5.722;2022-08-03T13:11:16;1.70;;;1.00;;
13222;SDS011;6676;45.192;5.722;2022-08-03T13:14:09;1.43;;;1.00;;
13222;SDS011;6676;45.192;5.722;2022-08-03T13:17:01;1.70;;;1.00;;
13222;SDS011;6676;45.192;5.722;2022-08-03T13:19:54;1.25;;;1.12;;
13222;SDS011;6676;45.192;5.722;2022-08-03T13:22:46;1.20;;;1.10;;
13222;SDS011;6676;45.192;5.722;2022-08-03T13:25:37;2.70;;;1.07;;
13222;SDS011;6676;45.192;5.722;2022-08-03T13:28:30;1.55;;;1.10;;
13222;SDS011;6676;45.192;5.722;2022-08-03T13:31:21;3.22;;;1.12;;
13222;SDS011;6676;45.192;5.722;2022-08-03T13:34:12;4.37;;;1.42;;
13222;SDS011;6676;45.192;5.722;2022-08-03T13:37:06;2.33;;;1.30;;
13222;SDS011;6676;45.192;5.722;2022-08-03T13:40:10;1.32;;;0.95;;
13222;SDS011;6676;45.192;5.722;2022-08-03T13:43:03;2.15;;;1.45;;
13222;SDS011;6676;45.192;5.722;2022-08-03T13:46:05;2.77;;;1.20;;
13222;SDS011;6676;45.192;5.722;2022-08-03T13:49:07;3.58;;;1.27;;
13222;SDS011;6676;45.192;5.722;2022-08-03T13:51:59;4.10;;;1.32;;
13222;SDS011;6676;45.192;5.722;2022-08-03T13:54:50;1.85;;;1.10;;
13222;SDS011;6676;45.192;5.722;2022-08-03T13:57:41;3.92;;;1.40;;
13222;SDS011;6676;45.192;5.722;2022-08-03T14:00:34;2.05;;;1.10;;
13222;SDS011;6676;45.192;5.722;2022-08-03T14:03:35;1.20;;;1.10;;
13222;SDS011;6676;45.192;5.722;2022-08-03T14:06:33;1.75;;;1.12;;
13222;SDS011;6676;45.192;5.722;2022-08-03T14:09:29;2.85;;;0.90;;
13222;SDS011;6676;45.192;5.722;2022-08-03T14:12:24;1.10;;;1.00;;
13222;SDS011;6676;45.192;5.722;2022-08-03T14:15:21;3.22;;;1.30;;
13222;SDS011;6676;45.192;5.722;2022-08-03T14:18:25;3.42;;;1.32;;
13222;SDS011;6676;45.192;5.722;2022-08-03T14:21:17;2.65;;;1.25;;
13222;SDS011;6676;45.192;5.722;2022-08-03T14:24:24;1.10;;;1.00;;
13222;SDS011;6676;45.192;5.722;2022-08-03T14:27:36;1.22;;;1.10;;
13222;SDS011;6676;45.192;5.722;2022-08-03T14:30:36;3.00;;;1.02;;
13222;SDS011;6676;45.192;5.722;2022-08-03T14:33:39;1.20;;;1.10;;
13222;SDS011;6676;45.192;5.722;2022-08-03T14:36:37;1.85;;;1.10;;
13222;SDS011;6676;45.192;5.722;2022-08-03T14:39:29;2.75;;;1.10;;
13222;SDS011;6676;45.192;5.722;2022-08-03T14:42:30;1.37;;;1.20;;
13222;SDS011;6676;45.192;5.722;2022-08-03T14:45:24;3.02;;;1.20;;
13222;SDS011;6676;45.192;5.722;2022-08-03T14:48:15;1.12;;;1.02;;
13222;SDS011;6676;45.192;5.722;2022-08-03T14:50:56;2.37;;;1.10;;
13222;SDS011;6676;45.192;5.722;2022-08-03T14:53:55;1.77;;;1.10;;
13222;SDS011;6676;45.192;5.722;2022-08-03T14:56:55;1.22;;;1.00;;
13222;SDS011;6676;45.192;5.722;2022-08-03T15:00:04;1.20;;;1.10;;
13222;SDS011;6676;45.192;5.722;2022-08-03T15:03:17;1.22;;;1.10;;
13222;SDS011;6676;45.192;5.722;2022-08-03T15:06:17;4.83;;;1.32;;
13222;SDS011;6676;45.192;5.722;2022-08-03T15:09:08;4.12;;;1.27;;
13222;SDS011;6676;45.192;5.722;2022-08-03T15:12:01;1.27;;;1.00;;
13222;SDS011;6676;45.192;5.722;2022-08-03T15:14:52;3.20;;;1.20;;
13222;SDS011;6676;45.192;5.722;2022-08-03T15:17:55;3.15;;;1.10;;
13222;SDS011;6676;45.192;5.722;2022-08-03T15:20:56;2.35;;;1.27;;
13222;SDS011;6676;45.192;5.722;2022-08-03T15:23:59;1.22;;;1.00;;
13222;SDS011;6676;45.192;5.722;2022-08-03T15:26:50;2.55;;;1.20;;
13222;SDS011;6676;45.192;5.722;2022-08-03T15:29:42;1.30;;;1.15;;
13222;SDS011;6676;45.192;5.722;2022-08-03T15:32:43;1.55;;;1.32;;
13222;SDS011;6676;45.192;5.722;2022-08-03T15:35:35;2.10;;;1.10;;
13222;SDS011;6676;45.192;5.722;2022-08-03T15:38:26;1.72;;;1.10;;
13222;SDS011;6676;45.192;5.722;2022-08-03T15:41:17;1.20;;;1.10;;
13222;SDS011;6676;45.192;5.722;2022-08-03T15:44:09;1.22;;;1.10;;
13222;SDS011;6676;45.192;5.722;2022-08-03T15:47:10;1.20;;;1.10;;
13222;SDS011;6676;45.192;5.722;2022-08-03T15:50:07;2.67;;;1.20;;
13222;SDS011;6676;45.192;5.722;2022-08-03T15:53:12;1.85;;;1.10;;
13222;SDS011;6676;45.192;5.722;2022-08-03T15:56:03;1.25;;;1.15;;
13222;SDS011;6676;45.192;5.722;2022-08-03T15:58:58;1.95;;;1.20;;
13222;SDS011;6676;45.192;5.722;2022-08-03T16:01:57;1.40;;;1.20;;
13222;SDS011;6676;45.192;5.722;2022-08-03T16:04:48;3.80;;;1.30;;
13222;SDS011;6676;45.192;5.722;2022-08-03T16:07:40;2.10;;;1.00;;
13222;SDS011;6676;45.192;5.722;2022-08-03T16:10:34;1.65;;;1.30;;
13222;SDS011;6676;45.192;5.722;2022-08-03T16:13:29;1.20;;;1.10;;
13222;SDS011;6676;45.192;5.722;2022-08-03T16:16:29;2.60;;;1.12;;
13222;SDS011;6676;45.192;5.722;2022-08-03T16:19:49;1.20;;;1.10;;
13222;SDS011;6676;45.192;5.722;2022-08-03T16:22:43;1.00;;;1.00;;
13222;SDS011;6676;45.192;5.722;2022-08-03T16:25:36;2.15;;;1.12;;
13222;SDS011;6676;45.192;5.722;2022-08-03T16:28:28;2.47;;;1.20;;
13222;SDS011;6676;45.192;5.722;2022-08-03T16:31:21;1.20;;;1.10;;
13222;SDS011;6676;45.192;5.722;2022-08-03T16:34:14;1.50;;;1.37;;
13222;SDS011;6676;45.192;5.722;2022-08-03T16:37:06;4.62;;;1.30;;
13222;SDS011;6676;45.192;5.722;2022-08-03T16:40:10;1.25;;;0.90;;
13222;SDS011;6676;45.192;5.722;2022-08-03T16:43:09;2.05;;;1.00;;
13222;SDS011;6676;45.192;5.722;2022-08-03T16:46:07;1.10;;;1.00;;
13222;SDS011;6676;45.192;5.722;2022-08-03T16:49:08;1.20;;;1.10;;
13222;SDS011;6676;45.192;5.722;2022-08-03T16:52:04;3.17;;;1.10;;
13222;SDS011;6676;45.192;5.722;2022-08-03T16:54:55;1.25;;;1.15;;
13222;SDS011;6676;45.192;5.722;2022-08-03T16:57:47;1.52;;;1.10;;
13222;SDS011;6676;45.192;5.722;2022-08-03T17:00:41;3.00;;;1.00;;
13222;SDS011;6676;45.192;5.722;2022-08-03T17:03:46;1.67;;;1.12;;
13222;SDS011;6676;45.192;5.722;2022-08-03T17:06:51;1.32;;;0.90;;
13222;SDS011;6676;45.192;5.722;2022-08-03T17:09:45;1.12;;;1.02;;
13222;SDS011;6676;45.192;5.722;2022-08-03T17:12:43;1.10;;;0.95;;
13222;SDS011;6676;45.192;5.722;2022-08-03T17:15:40;3.25;;;1.10;;
13222;SDS011;6676;45.192;5.722;2022-08-03T17:18:38;0.90;;;0.90;;
13222;SDS011;6676;45.192;5.722;2022-08-03T17:24:53;1.17;;;0.98;;
13222;SDS011;6676;45.192;5.722;2022-08-03T17:27:56;3.10;;;0.70;;
13222;SDS011;6676;45.192;5.722;2022-08-03T17:30:52;1.00;;;0.98;;
13222;SDS011;6676;45.192;5.722;2022-08-03T17:34:10;1.30;;;0.90;;
13222;SDS011;6676;45.192;5.722;2022-08-03T17:37:07;1.02;;;0.70;;
13222;SDS011;6676;45.192;5.722;2022-08-03T17:40:14;1.57;;;0.93;;
13222;SDS011;6676;45.192;5.722;2022-08-03T17:43:14;1.10;;;1.00;;
13222;SDS011;6676;45.192;5.722;2022-08-03T17:46:08;0.75;;;0.75;;
13222;SDS011;6676;45.192;5.722;2022-08-03T17:49:10;1.15;;;0.90;;
13222;SDS011;6676;45.192;5.722;2022-08-03T17:52:10;1.35;;;0.90;;
13222;SDS011;6676;45.192;5.722;2022-08-03T17:55:25;2.25;;;1.10;;
13222;SDS011;6676;45.192;5.722;2022-08-03T18:01:55;1.57;;;0.95;;
13222;SDS011;6676;45.192;5.722;2022-08-03T18:04:37;2.65;;;0.90;;
13222;SDS011;6676;45.192;5.722;2022-08-03T18:07:43;1.85;;;1.10;;
13222;SDS011;6676;45.192;5.722;2022-08-03T18:11:01;1.82;;;1.10;;
13222;SDS011;6676;45.192;5.722;2022-08-03T18:14:14;1.62;;;1.10;;
13222;SDS011;6676;45.192;5.722;2022-08-03T18:17:04;2.15;;;0.98;;
13222;SDS011;6676;45.192;5.722;2022-08-03T18:19:57;3.75;;;1.07;;
13222;SDS011;6676;45.192;5.722;2022-08-03T18:23:04;2.72;;;1.10;;
13222;SDS011;6676;45.192;5.722;2022-08-03T18:25:58;2.55;;;1.15;;
13222;SDS011;6676;45.192;5.722;2022-08-03T18:28:59;1.30;;;0.90;;
13222;SDS011;6676;45.192;5.722;2022-08-03T18:31:56;3.17;;;1.20;;
13222;SDS011;6676;45.192;5.722;2022-08-03T18:34:57;2.67;;;1.12;;
13222;SDS011;6676;45.192;5.722;2022-08-03T18:37:59;2.42;;;1.10;;
13222;SDS011;6676;45.192;5.722;2022-08-03T18:40:41;2.15;;;1.20;;
13222;SDS011;6676;45.192;5.722;2022-08-03T18:43:43;2.33;;;0.93;;